Time;durP1;ratioP1;P1;durP2;ratioP2;P2;SDS_P1;SDS_P2;PMS_P1;PMS_P2;Temp;Humidity;BMP_temperature;BMP_pressure;BME280_temperature;BME280_humidity;BME280_pressure;Samples;Min_cycle;Max_cycle;Signal;HPM_P1;HPM_P2
2022/07/31 00:00:31;;;;;;;2.47;2.37;;;19.80;54.40;;;;;;938938;150;27435;-75
2022/07/31 00:02:58;;;;;;;3.52;2.75;;;19.70;54.50;;;;;;938568;150;27341;-76
2022/07/31 00:05:24;;;;;;;2.42;2.33;;;19.70;54.70;;;;;;938922;150;27369;-77
2022/07/31 00:07:51;;;;;;;3.00;2.70;;;19.70;54.80;;;;;;938217;150;27361;-76
2022/07/31 00:10:18;;;;;;;2.58;2.37;;;19.70;55.00;;;;;;938650;150;27314;-75
2022/07/31 00:12:44;;;;;;;2.52;2.33;;;19.70;55.10;;;;;;939350;150;27266;-75
2022/07/31 00:15:11;;;;;;;2.90;2.70;;;19.70;55.20;;;;;;938041;150;27451;-75
2022/07/31 00:17:37;;;;;;;2.83;2.62;;;19.70;55.30;;;;;;938037;150;27845;-76
2022/07/31 00:20:04;;;;;;;3.80;2.75;;;19.70;55.50;;;;;;938564;150;27352;-74
2022/07/31 00:22:31;;;;;;;2.60;2.40;;;19.70;55.60;;;;;;937963;150;27427;-75
2022/07/31 00:24:57;;;;;;;2.80;2.40;;;19.80;55.70;;;;;;937731;150;27337;-76
2022/07/31 00:27:24;;;;;;;3.33;2.47;;;19.70;55.80;;;;;;938875;150;27293;-75
2022/07/31 00:29:50;;;;;;;2.55;2.35;;;19.80;55.80;;;;;;937706;150;27288;-77
2022/07/31 00:32:17;;;;;;;3.37;2.37;;;19.80;55.90;;;;;;938731;150;27341;-75
2022/07/31 00:34:44;;;;;;;2.67;2.47;;;19.90;56.00;;;;;;941542;149;27434;-75
2022/07/31 00:37:10;;;;;;;2.95;2.37;;;19.90;56.10;;;;;;943966;149;27285;-75
2022/07/31 00:39:37;;;;;;;5.72;2.45;;;20.00;56.20;;;;;;944547;149;27281;-75
2022/07/31 00:42:04;;;;;;;2.80;2.35;;;20.00;56.10;;;;;;943927;149;27312;-76
2022/07/31 00:44:30;;;;;;;2.58;2.37;;;20.00;56.10;;;;;;944294;149;27356;-77
2022/07/31 00:46:56;;;;;;;3.67;2.30;;;20.10;56.10;;;;;;944056;149;27340;-77
2022/07/31 00:49:23;;;;;;;3.33;2.72;;;20.10;56.20;;;;;;944297;149;27270;-75
2022/07/31 00:51:50;;;;;;;2.70;2.45;;;20.10;56.20;;;;;;943750;149;27400;-76
2022/07/31 00:54:16;;;;;;;2.85;2.60;;;20.10;56.20;;;;;;944164;148;27304;-75
2022/07/31 00:56:43;;;;;;;3.83;2.77;;;20.10;56.10;;;;;;944220;149;27308;-78
2022/07/31 00:59:09;;;;;;;2.95;2.60;;;20.20;56.10;;;;;;943901;149;27433;-75
2022/07/31 01:01:36;;;;;;;2.83;2.27;;;20.20;56.10;;;;;;943918;149;27344;-76
2022/07/31 01:04:03;;;;;;;3.02;2.42;;;20.20;56.10;;;;;;943516;149;27409;-75
2022/07/31 01:06:29;;;;;;;2.80;2.50;;;20.20;56.10;;;;;;943782;149;27360;-75
2022/07/31 01:08:56;;;;;;;2.12;2.02;;;20.20;56.10;;;;;;943549;149;27293;-75
2022/07/31 01:11:44;;;;;;;2.85;2.30;;;20.20;56.10;;;;;;944106;149;27301;-75
2022/07/31 01:14:10;;;;;;;2.33;2.12;;;20.20;55.80;;;;;;943516;149;27726;-75
2022/07/31 01:16:37;;;;;;;2.33;2.12;;;20.20;55.60;;;;;;943960;149;27446;-74
2022/07/31 01:19:21;;;;;;;2.10;2.00;;;20.20;55.70;;;;;;943928;149;27721;-75
2022/07/31 01:22:16;;;;;;;2.83;2.33;;;20.30;55.80;;;;;;941074;149;27332;-75
2022/07/31 01:24:52;;;;;;;2.42;2.22;;;20.30;55.80;;;;;;943477;149;27375;-75
2022/07/31 01:27:36;;;;;;;2.25;2.12;;;20.30;55.80;;;;;;943101;149;27369;-74
2022/07/31 01:30:03;;;;;;;2.27;2.08;;;20.30;55.90;;;;;;943620;149;27308;-74
2022/07/31 01:32:32;;;;;;;2.87;2.10;;;20.30;56.00;;;;;;944144;149;27308;-74
2022/07/31 01:34:59;;;;;;;3.00;2.70;;;20.30;56.10;;;;;;943693;149;27448;-74
2022/07/31 01:37:40;;;;;;;3.08;2.35;;;20.30;56.10;;;;;;943995;149;27321;-74
2022/07/31 01:40:10;;;;;;;2.20;2.10;;;20.30;56.20;;;;;;943636;149;27307;-74
2022/07/31 01:42:36;;;;;;;2.70;2.50;;;20.30;56.20;;;;;;943480;149;27462;-74
2022/07/31 01:45:03;;;;;;;2.40;2.20;;;20.30;56.30;;;;;;943985;149;27864;-74
2022/07/31 01:47:29;;;;;;;2.30;2.12;;;20.30;56.40;;;;;;943913;149;27364;-74
2022/07/31 01:49:57;;;;;;;3.83;2.20;;;20.20;56.50;;;;;;944151;149;27273;-74
2022/07/31 01:52:23;;;;;;;2.40;2.20;;;20.30;56.60;;;;;;943470;149;27438;-74
2022/07/31 01:54:49;;;;;;;2.60;2.40;;;20.20;56.60;;;;;;944047;149;27401;-75
2022/07/31 01:57:16;;;;;;;2.65;2.45;;;20.20;56.70;;;;;;943786;149;27320;-74
2022/07/31 01:59:42;;;;;;;3.10;2.55;;;20.20;56.80;;;;;;944124;149;27273;-74
2022/07/31 02:02:09;;;;;;;3.62;2.85;;;20.20;56.90;;;;;;943853;149;27244;-76
2022/07/31 02:04:35;;;;;;;2.80;2.60;;;20.20;57.00;;;;;;944174;149;27353;-74
2022/07/31 02:07:05;;;;;;;2.67;2.52;;;20.20;57.20;;;;;;944233;149;27329;-76
2022/07/31 02:09:29;;;;;;;3.22;3.02;;;20.20;57.30;;;;;;943335;149;27364;-74
2022/07/31 02:11:55;;;;;;;3.52;3.20;;;20.20;56.80;;;;;;943412;149;27370;-74
2022/07/31 02:14:22;;;;;;;3.52;3.22;;;20.10;57.40;;;;;;943824;149;27744;-75
2022/07/31 02:16:49;;;;;;;3.12;2.92;;;20.10;57.40;;;;;;943229;149;27393;-74
2022/07/31 02:19:15;;;;;;;3.12;2.83;;;20.10;57.50;;;;;;944034;149;27405;-76
2022/07/31 02:21:42;;;;;;;3.10;2.80;;;20.10;57.60;;;;;;944708;149;27368;-74
2022/07/31 02:24:08;;;;;;;3.27;2.98;;;20.10;57.60;;;;;;944740;149;27852;-74
2022/07/31 02:26:35;;;;;;;2.95;2.75;;;20.00;57.70;;;;;;944084;149;27341;-75
2022/07/31 02:29:01;;;;;;;3.08;2.77;;;19.90;57.80;;;;;;944396;149;27389;-74
2022/07/31 02:31:29;;;;;;;3.58;3.27;;;19.90;57.90;;;;;;944098;149;27273;-74
2022/07/31 02:33:54;;;;;;;3.33;3.02;;;19.80;58.10;;;;;;944475;149;27299;-77
2022/07/31 02:36:21;;;;;;;3.17;2.95;;;19.80;58.30;;;;;;940182;149;27461;-73
2022/07/31 02:38:48;;;;;;;2.80;2.60;;;19.70;58.60;;;;;;938180;150;27333;-74
2022/07/31 02:41:14;;;;;;;3.30;3.08;;;19.70;58.70;;;;;;938408;150;27294;-78
2022/07/31 02:43:41;;;;;;;3.25;3.00;;;19.70;58.90;;;;;;938395;150;27334;-77
2022/07/31 02:46:07;;;;;;;3.83;3.25;;;19.60;59.00;;;;;;938805;150;27393;-77
2022/07/31 02:48:35;;;;;;;5.72;3.35;;;19.60;59.20;;;;;;938195;150;27474;-78
2022/07/31 02:51:01;;;;;;;3.65;2.83;;;19.60;59.30;;;;;;938072;150;27326;-78
2022/07/31 02:53:27;;;;;;;3.47;3.17;;;19.60;59.40;;;;;;938789;150;27378;-77
2022/07/31 02:55:54;;;;;;;3.10;2.83;;;19.60;59.60;;;;;;938878;150;27416;-77
2022/07/31 02:58:20;;;;;;;3.72;3.37;;;19.60;59.60;;;;;;937801;150;27348;-76
2022/07/31 03:00:47;;;;;;;4.05;3.25;;;19.60;59.80;;;;;;938378;150;27361;-76
2022/07/31 03:03:14;;;;;;;3.47;3.10;;;19.70;59.90;;;;;;938142;150;27326;-77
2022/07/31 03:05:40;;;;;;;4.67;3.60;;;19.60;60.00;;;;;;938322;150;27348;-77
2022/07/31 03:08:07;;;;;;;3.83;3.40;;;19.70;60.00;;;;;;937791;150;27375;-77
2022/07/31 03:10:33;;;;;;;3.20;2.95;;;19.70;60.10;;;;;;938261;150;27433;-76
2022/07/31 03:13:00;;;;;;;3.15;2.92;;;19.70;60.20;;;;;;938639;150;27364;-76
2022/07/31 03:15:27;;;;;;;3.42;3.12;;;19.70;60.30;;;;;;936741;150;27349;-76
2022/07/31 03:17:53;;;;;;;3.10;2.87;;;19.70;60.40;;;;;;937333;150;27370;-77
2022/07/31 03:20:20;;;;;;;3.50;3.20;;;19.70;60.50;;;;;;937256;150;27434;-77
2022/07/31 03:22:46;;;;;;;3.08;2.87;;;19.70;60.50;;;;;;938521;150;27255;-77
2022/07/31 03:25:13;;;;;;;4.50;3.30;;;19.70;60.70;;;;;;938419;150;27331;-76
2022/07/31 03:27:39;;;;;;;3.45;2.90;;;19.70;60.80;;;;;;938756;150;27668;-77
2022/07/31 03:30:06;;;;;;;3.70;3.37;;;19.70;60.80;;;;;;938201;150;27436;-77
2022/07/31 03:32:34;;;;;;;3.85;3.22;;;19.70;61.00;;;;;;939086;150;27298;-77
2022/07/31 03:34:59;;;;;;;3.90;3.10;;;19.70;61.00;;;;;;938627;150;27322;-76
2022/07/31 03:37:26;;;;;;;4.00;3.10;;;19.70;61.00;;;;;;945038;149;27351;-76
2022/07/31 03:39:53;;;;;;;3.72;3.42;;;19.70;61.00;;;;;;945121;149;27357;-76
2022/07/31 03:42:19;;;;;;;3.27;2.98;;;19.60;61.00;;;;;;944888;148;27354;-77
2022/07/31 03:44:46;;;;;;;4.03;3.15;;;19.60;61.10;;;;;;945199;149;27268;-77
2022/07/31 03:47:12;;;;;;;2.90;2.70;;;19.60;61.30;;;;;;945488;149;27326;-77
2022/07/31 03:49:39;;;;;;;3.60;3.30;;;19.50;61.30;;;;;;944433;149;27300;-76
2022/07/31 03:52:05;;;;;;;3.12;2.92;;;19.50;61.40;;;;;;945528;149;27430;-76
2022/07/31 03:54:32;;;;;;;3.22;2.92;;;19.50;61.60;;;;;;945581;149;27437;-77
2022/07/31 03:56:59;;;;;;;4.03;3.52;;;19.40;61.80;;;;;;945700;149;27374;-77
2022/07/31 03:59:25;;;;;;;3.30;3.00;;;19.40;62.00;;;;;;943255;149;27337;-76
2022/07/31 04:01:52;;;;;;;4.17;3.80;;;19.30;62.10;;;;;;944870;149;27312;-77
2022/07/31 04:04:18;;;;;;;3.50;3.15;;;19.30;62.30;;;;;;945467;149;27305;-77
2022/07/31 04:06:45;;;;;;;3.77;3.47;;;19.20;62.50;;;;;;945937;149;27860;-76
2022/07/31 04:09:12;;;;;;;3.98;3.58;;;19.20;62.60;;;;;;944963;149;28054;-77
2022/07/31 04:11:38;;;;;;;3.70;3.40;;;19.20;62.90;;;;;;944497;149;27348;-77
2022/07/31 04:14:05;;;;;;;3.77;3.35;;;19.10;62.90;;;;;;945499;149;28011;-77
2022/07/31 04:16:31;;;;;;;4.72;3.30;;;19.10;63.10;;;;;;944096;149;27315;-77
2022/07/31 04:18:58;;;;;;;4.20;3.80;;;19.10;63.20;;;;;;945829;149;27316;-77
2022/07/31 04:21:25;;;;;;;3.20;2.95;;;19.10;63.40;;;;;;945124;149;27453;-77
2022/07/31 04:23:51;;;;;;;3.58;3.27;;;19.10;63.50;;;;;;945239;149;27427;-78
2022/07/31 04:26:18;;;;;;;4.00;3.62;;;19.10;63.70;;;;;;945951;149;27345;-76
2022/07/31 04:28:44;;;;;;;4.20;3.33;;;19.10;64.00;;;;;;946165;149;27294;-77
2022/07/31 04:31:11;;;;;;;3.42;3.12;;;19.10;64.20;;;;;;945259;149;27401;-76
2022/07/31 04:33:37;;;;;;;3.65;3.37;;;19.20;64.30;;;;;;945536;149;27314;-77
2022/07/31 04:36:04;;;;;;;3.87;3.20;;;19.20;64.40;;;;;;945913;149;27426;-77
2022/07/31 04:38:31;;;;;;;3.05;2.85;;;19.30;64.60;;;;;;952901;148;27394;-77
2022/07/31 04:40:57;;;;;;;3.70;3.27;;;19.30;64.60;;;;;;953561;148;27319;-77
2022/07/31 04:43:24;;;;;;;3.20;3.00;;;19.40;64.90;;;;;;952595;148;27694;-76
2022/07/31 04:45:50;;;;;;;3.58;3.37;;;19.50;65.10;;;;;;953189;148;27346;-76
2022/07/31 04:48:17;;;;;;;3.15;2.95;;;19.50;65.20;;;;;;953256;148;27319;-77
2022/07/31 04:50:44;;;;;;;3.45;3.20;;;19.70;65.20;;;;;;952858;148;27322;-76
2022/07/31 04:53:10;;;;;;;3.72;3.42;;;19.80;65.20;;;;;;953628;148;27343;-77
2022/07/31 04:55:37;;;;;;;3.45;3.20;;;20.00;65.20;;;;;;953683;148;27342;-76
2022/07/31 04:58:03;;;;;;;3.27;3.05;;;20.10;65.30;;;;;;953214;148;27432;-76
2022/07/31 05:00:30;;;;;;;3.60;3.30;;;20.30;65.10;;;;;;953667;148;27358;-77
2022/07/31 05:02:57;;;;;;;3.20;2.90;;;20.40;65.60;;;;;;953374;148;27432;-77
2022/07/31 05:05:23;;;;;;;3.33;3.02;;;20.60;64.60;;;;;;953807;148;27774;-77
2022/07/31 05:07:50;;;;;;;3.33;2.98;;;20.80;64.50;;;;;;953273;148;27221;-77
2022/07/31 05:13:01;;;;;;;3.22;3.00;;;21.10;64.30;;;;;;953444;148;27357;-76
2022/07/31 05:17:55;;;;;;;2.98;2.77;;;21.30;64.20;;;;;;974132;144;40750;-78
2022/07/31 05:20:22;;;;;;;3.02;2.83;;;21.70;64.00;;;;;;961181;147;27314;-77
2022/07/31 05:22:48;;;;;;;3.50;3.20;;;21.90;63.70;;;;;;959805;147;27331;-77
2022/07/31 05:25:15;;;;;;;3.00;2.80;;;22.10;63.40;;;;;;960892;147;27424;-77
2022/07/31 05:27:41;;;;;;;3.12;2.80;;;22.30;63.00;;;;;;960777;147;27235;-77
2022/07/31 05:30:08;;;;;;;3.10;2.85;;;22.50;62.70;;;;;;960848;147;27309;-77
2022/07/31 05:32:35;;;;;;;4.50;4.00;;;22.70;62.40;;;;;;959094;147;27372;-77
2022/07/31 05:35:01;;;;;;;3.02;2.83;;;22.90;62.10;;;;;;958864;147;27349;-77
2022/07/31 05:37:28;;;;;;;3.10;2.80;;;23.10;61.00;;;;;;959199;147;27324;-77
2022/07/31 05:39:54;;;;;;;3.70;3.40;;;23.20;61.50;;;;;;960041;147;27965;-77
2022/07/31 05:42:21;;;;;;;3.60;3.33;;;23.30;61.90;;;;;;960908;146;27364;-78
2022/07/31 05:44:48;;;;;;;3.25;3.00;;;23.40;61.10;;;;;;961020;147;27310;-78
2022/07/31 05:47:14;;;;;;;3.52;2.87;;;23.50;60.90;;;;;;961232;147;27341;-77
2022/07/31 05:49:41;;;;;;;3.70;3.40;;;23.60;60.70;;;;;;960550;147;27302;-77
2022/07/31 05:52:07;;;;;;;3.42;3.12;;;23.70;60.40;;;;;;960386;147;27325;-78
2022/07/31 05:54:34;;;;;;;3.50;3.22;;;23.80;60.30;;;;;;957986;147;27365;-77
2022/07/31 05:57:01;;;;;;;3.10;2.87;;;23.90;60.10;;;;;;949124;146;27369;-78
2022/07/31 05:59:27;;;;;;;2.90;2.70;;;23.90;60.00;;;;;;950668;148;27348;-77
2022/07/31 06:01:54;;;;;;;3.83;3.47;;;23.90;60.60;;;;;;952108;146;27324;-78
2022/07/31 06:04:20;;;;;;;3.12;2.80;;;24.00;59.80;;;;;;951164;148;27317;-78
2022/07/31 06:06:47;;;;;;;3.72;3.42;;;24.00;59.70;;;;;;949412;146;27369;-77
2022/07/31 06:09:13;;;;;;;3.02;2.80;;;24.00;59.60;;;;;;950913;149;27328;-80
2022/07/31 06:11:40;;;;;;;3.30;3.00;;;24.10;59.50;;;;;;951045;146;27425;-77
2022/07/31 06:14:08;;;;;;;3.45;3.17;;;24.00;59.40;;;;;;948683;149;27343;-78
2022/07/31 06:16:33;;;;;;;3.37;2.95;;;24.00;59.40;;;;;;950907;146;27346;-77
2022/07/31 06:19:00;;;;;;;3.45;3.15;;;24.00;59.40;;;;;;945331;147;27416;-78
2022/07/31 06:21:26;;;;;;;3.47;3.17;;;24.10;59.50;;;;;;946079;147;27313;-78
2022/07/31 06:23:53;;;;;;;3.75;3.45;;;24.00;59.50;;;;;;942976;147;27458;-78
2022/07/31 06:26:20;;;;;;;3.62;3.20;;;24.00;59.50;;;;;;944486;149;27328;-78
2022/07/31 06:28:46;;;;;;;3.35;3.05;;;24.00;59.60;;;;;;944562;147;27418;-77
2022/07/31 06:31:16;;;;;;;3.87;2.95;;;24.10;59.60;;;;;;943607;146;27764;-77
2022/07/31 06:33:42;;;;;;;3.10;2.90;;;24.10;59.50;;;;;;942547;149;27638;-78
2022/07/31 06:36:09;;;;;;;3.55;3.25;;;24.10;59.40;;;;;;944719;147;27356;-78
2022/07/31 06:38:37;;;;;;;2.90;2.70;;;24.10;59.30;;;;;;942556;149;27442;-78
2022/07/31 06:41:04;;;;;;;2.95;2.75;;;24.00;59.30;;;;;;943058;147;27333;-79
2022/07/31 06:43:30;;;;;;;2.98;2.77;;;24.00;59.30;;;;;;944013;149;27343;-77
2022/07/31 06:45:57;;;;;;;2.90;2.70;;;24.00;59.30;;;;;;945212;147;28766;-77
2022/07/31 06:48:23;;;;;;;3.20;2.90;;;23.90;59.30;;;;;;944454;150;27296;-78
2022/07/31 06:50:50;;;;;;;3.33;3.02;;;23.90;59.50;;;;;;944435;147;27378;-78
2022/07/31 06:53:16;;;;;;;2.90;2.70;;;23.90;59.60;;;;;;943054;150;27440;-77
2022/07/31 06:55:43;;;;;;;3.20;3.00;;;24.00;59.60;;;;;;944445;149;27381;-78
2022/07/31 06:58:10;;;;;;;3.27;2.98;;;24.00;59.70;;;;;;942647;147;27306;-78
2022/07/31 07:00:36;;;;;;;3.02;2.83;;;24.10;59.80;;;;;;944631;147;27307;-78
2022/07/31 07:03:03;;;;;;;3.00;2.80;;;24.20;59.70;;;;;;944164;149;27302;-78
2022/07/31 07:05:29;;;;;;;4.08;2.95;;;24.30;59.70;;;;;;942277;147;27376;-79
2022/07/31 07:07:56;;;;;;;3.08;2.77;;;24.40;59.50;;;;;;943448;149;27362;-78
2022/07/31 07:10:23;;;;;;;3.00;2.80;;;24.60;59.50;;;;;;942231;147;27326;-78
2022/07/31 07:12:49;;;;;;;2.98;2.77;;;24.80;59.50;;;;;;944930;150;27306;-78
2022/07/31 07:15:16;;;;;;;2.77;2.58;;;25.00;59.50;;;;;;944099;147;27303;-78
2022/07/31 07:17:42;;;;;;;2.77;2.58;;;25.20;59.30;;;;;;948663;149;27712;-79
2022/07/31 07:20:09;;;;;;;2.75;2.52;;;25.50;58.90;;;;;;950320;146;27396;-78
2022/07/31 07:22:36;;;;;;;3.05;2.80;;;25.70;58.50;;;;;;950385;149;27315;-78
2022/07/31 07:25:02;;;;;;;3.30;2.90;;;25.90;58.00;;;;;;949091;146;27337;-79
2022/07/31 07:27:29;;;;;;;3.52;2.58;;;26.10;57.60;;;;;;949590;148;27338;-78
2022/07/31 07:29:55;;;;;;;2.40;2.20;;;26.20;57.20;;;;;;950893;148;27369;-78
2022/07/31 07:32:22;;;;;;;2.47;2.27;;;26.40;56.90;;;;;;951035;149;27312;-78
2022/07/31 07:34:49;;;;;;;2.70;2.50;;;26.50;56.60;;;;;;950601;146;27450;-78
2022/07/31 07:37:15;;;;;;;2.37;2.17;;;26.60;56.40;;;;;;949051;146;27313;-78
2022/07/31 07:39:42;;;;;;;2.67;2.40;;;26.70;56.10;;;;;;950518;146;27341;-78
2022/07/31 07:42:08;;;;;;;2.25;2.00;;;26.80;56.00;;;;;;951144;146;27350;-79
2022/07/31 07:44:35;;;;;;;3.50;2.30;;;26.90;55.80;;;;;;951101;146;27421;-78
2022/07/31 07:47:01;;;;;;;2.37;2.27;;;27.00;55.60;;;;;;950248;149;28476;-78
2022/07/31 07:49:28;;;;;;;4.05;2.25;;;27.10;55.40;;;;;;952734;149;27368;-78
2022/07/31 07:51:55;;;;;;;3.08;2.10;;;27.30;55.30;;;;;;952014;146;27316;-78
2022/07/31 07:54:21;;;;;;;2.50;2.20;;;27.40;55.20;;;;;;950291;149;27313;-78
2022/07/31 07:56:49;;;;;;;3.05;2.30;;;27.60;54.70;;;;;;949099;149;27452;-78
2022/07/31 07:59:14;;;;;;;4.08;2.05;;;27.80;54.20;;;;;;950236;149;27345;-78
2022/07/31 08:01:41;;;;;;;2.10;1.98;;;27.90;53.80;;;;;;949414;146;27266;-78
2022/07/31 08:04:08;;;;;;;2.65;2.08;;;28.10;53.60;;;;;;950267;149;27309;-78
2022/07/31 08:06:34;;;;;;;2.20;2.00;;;28.10;53.30;;;;;;951046;149;27450;-78
2022/07/31 08:09:01;;;;;;;2.30;2.10;;;28.30;53.00;;;;;;949703;148;27332;-79
2022/07/31 08:11:28;;;;;;;2.22;2.02;;;28.40;52.80;;;;;;948785;148;27436;-78
2022/07/31 08:13:54;;;;;;;2.40;2.10;;;28.50;52.70;;;;;;950457;146;27330;-78
2022/07/31 08:16:21;;;;;;;2.17;1.90;;;28.70;52.70;;;;;;949563;146;27423;-78
2022/07/31 08:18:47;;;;;;;2.27;2.08;;;28.90;52.70;;;;;;945544;149;27338;-78
2022/07/31 08:21:14;;;;;;;2.47;2.12;;;29.40;53.10;;;;;;946492;147;27308;-79
2022/07/31 08:23:41;;;;;;;2.00;1.80;;;29.90;53.30;;;;;;944698;149;27460;-78
2022/07/31 08:26:09;;;;;;;1.87;1.77;;;30.60;53.40;;;;;;945346;147;27259;-78
2022/07/31 08:28:36;;;;;;;1.98;1.87;;;31.40;52.90;;;;;;944373;150;27365;-79
2022/07/31 08:31:03;;;;;;;2.72;1.90;;;32.10;51.40;;;;;;943650;147;27319;-79
2022/07/31 08:33:31;;;;;;;1.90;1.80;;;32.60;49.80;;;;;;944528;150;27329;-78
2022/07/31 08:35:56;;;;;;;1.90;1.80;;;33.10;48.60;;;;;;944905;147;27354;-79
2022/07/31 08:38:22;;;;;;;2.95;1.80;;;33.40;47.80;;;;;;944627;147;27422;-79
2022/07/31 08:40:49;;;;;;;1.70;1.60;;;33.70;47.60;;;;;;944247;147;26213;-79
2022/07/31 08:43:16;;;;;;;1.70;1.60;;;34.00;47.30;;;;;;946431;148;27328;-79
2022/07/31 08:45:42;;;;;;;3.33;2.00;;;34.40;46.50;;;;;;943853;147;27435;-80
2022/07/31 08:48:09;;;;;;;1.67;1.50;;;34.60;45.60;;;;;;944805;149;27525;-80
2022/07/31 08:50:35;;;;;;;2.85;1.75;;;34.80;44.80;;;;;;946433;147;28385;-79
2022/07/31 08:53:02;;;;;;;1.77;1.67;;;34.90;44.30;;;;;;945803;149;27349;-79
2022/07/31 08:55:28;;;;;;;1.70;1.60;;;35.10;44.00;;;;;;946632;147;26265;-79
2022/07/31 08:57:55;;;;;;;1.62;1.50;;;35.20;43.90;;;;;;942914;149;26358;-79
2022/07/31 09:00:22;;;;;;;2.02;1.55;;;35.40;43.70;;;;;;945066;149;27372;-79
2022/07/31 09:02:48;;;;;;;1.80;1.70;;;35.70;43.40;;;;;;945702;150;26588;-79
2022/07/31 09:05:15;;;;;;;1.60;1.50;;;35.80;43.10;;;;;;944699;150;27517;-79
2022/07/31 09:07:41;;;;;;;1.87;1.40;;;36.00;42.60;;;;;;942667;149;27402;-79
2022/07/31 09:10:08;;;;;;;1.30;1.30;;;36.10;42.00;;;;;;946731;149;26206;-79
2022/07/31 09:12:35;;;;;;;1.62;1.52;;;36.10;41.20;;;;;;937204;150;27421;-79
2022/07/31 09:15:02;;;;;;;2.75;1.70;;;36.00;40.80;;;;;;942876;150;27376;-79
2022/07/31 09:17:31;;;;;;;4.55;1.67;;;36.00;40.80;;;;;;943750;150;27363;-80
2022/07/31 09:19:58;;;;;;;2.12;1.45;;;36.00;40.90;;;;;;950113;149;26300;-79
2022/07/31 09:22:24;;;;;;;1.60;1.30;;;36.10;41.30;;;;;;949517;149;27423;-79
2022/07/31 09:24:51;;;;;;;1.77;1.50;;;36.20;41.10;;;;;;949479;149;26326;-80
2022/07/31 09:27:17;;;;;;;1.40;1.30;;;36.50;41.00;;;;;;951375;149;26301;-79
2022/07/31 09:29:44;;;;;;;1.70;1.52;;;36.90;40.90;;;;;;956711;149;26273;-80
2022/07/31 09:32:10;;;;;;;1.62;1.52;;;37.30;41.00;;;;;;952145;149;27367;-77
2022/07/31 09:34:37;;;;;;;1.30;1.20;;;37.70;40.20;;;;;;955103;148;26193;-79
2022/07/31 09:37:13;;;;;;;1.70;1.60;;;38.10;39.50;;;;;;950686;149;27452;-81
2022/07/31 09:39:39;;;;;;;1.47;1.37;;;38.50;38.60;;;;;;948853;146;26268;-80
2022/07/31 09:42:06;;;;;;;1.40;1.30;;;38.90;38.50;;;;;;950678;149;26704;-79
2022/07/31 09:44:38;;;;;;;1.30;1.22;;;39.20;38.10;;;;;;952798;149;26236;-79
2022/07/31 09:47:05;;;;;;;3.58;1.52;;;39.50;37.50;;;;;;948256;149;27415;-80
2022/07/31 09:49:31;;;;;;;1.37;1.27;;;39.70;36.50;;;;;;951333;149;26325;-81
2022/07/31 09:51:59;;;;;;;2.92;1.35;;;39.80;35.80;;;;;;951859;149;26353;-80
2022/07/31 09:54:24;;;;;;;1.42;1.32;;;39.90;35.80;;;;;;951927;149;26256;-80
2022/07/31 09:56:51;;;;;;;1.85;1.20;;;40.10;35.80;;;;;;951398;149;26231;-80
2022/07/31 09:59:17;;;;;;;1.07;0.98;;;40.20;35.50;;;;;;951672;149;26357;-80
2022/07/31 10:01:44;;;;;;;1.12;1.00;;;40.40;35.20;;;;;;950972;149;26201;-80
2022/07/31 10:04:11;;;;;;;1.15;1.05;;;40.50;34.40;;;;;;950470;149;26300;-79
2022/07/31 10:06:37;;;;;;;1.40;1.25;;;40.60;34.10;;;;;;951177;149;26329;-80
2022/07/31 10:09:04;;;;;;;1.95;1.45;;;40.50;33.50;;;;;;950877;146;26333;-80
2022/07/31 10:11:30;;;;;;;1.30;1.20;;;40.50;33.40;;;;;;951496;149;26219;-81
2022/07/31 10:13:57;;;;;;;1.25;1.15;;;40.40;33.50;;;;;;950689;146;26244;-80
2022/07/31 10:16:24;;;;;;;1.30;1.20;;;40.40;33.40;;;;;;951460;149;26272;-81
2022/07/31 10:18:50;;;;;;;1.52;1.25;;;40.40;32.70;;;;;;952551;149;26328;-80
2022/07/31 10:21:17;;;;;;;1.15;1.05;;;40.30;32.50;;;;;;950322;149;27388;-79
2022/07/31 10:23:43;;;;;;;1.30;1.20;;;40.30;32.40;;;;;;950056;146;26232;-80
2022/07/31 10:26:10;;;;;;;1.87;1.50;;;40.20;32.30;;;;;;949585;149;26225;-79
2022/07/31 10:28:36;;;;;;;1.70;1.60;;;40.00;32.10;;;;;;950116;146;26192;-81
2022/07/31 10:31:03;;;;;;;1.22;1.10;;;39.90;32.00;;;;;;949715;147;26296;-80
2022/07/31 10:33:30;;;;;;;1.40;1.30;;;39.80;32.00;;;;;;950960;146;26255;-79
2022/07/31 10:35:59;;;;;;;1.47;1.35;;;39.60;32.00;;;;;;948386;146;27321;-80
2022/07/31 10:38:41;;;;;;;1.15;1.10;;;39.40;32.00;;;;;;947371;149;26360;-80
2022/07/31 10:41:17;;;;;;;1.55;1.40;;;39.30;31.90;;;;;;949169;146;26236;-80
2022/07/31 10:43:52;;;;;;;1.67;1.32;;;39.10;32.00;;;;;;949477;146;26329;-80
2022/07/31 10:46:28;;;;;;;1.27;1.07;;;38.90;32.10;;;;;;948245;146;26284;-79
2022/07/31 10:48:54;;;;;;;1.95;1.40;;;38.80;32.20;;;;;;947081;147;26337;-80
2022/07/31 10:51:22;;;;;;;1.40;1.30;;;38.70;32.10;;;;;;949642;149;26248;-79
2022/07/31 10:53:53;;;;;;;1.45;1.35;;;38.60;32.20;;;;;;950588;149;26302;-80
2022/07/31 10:56:20;;;;;;;1.60;1.50;;;38.50;32.40;;;;;;948692;149;26397;-81
2022/07/31 10:58:47;;;;;;;2.85;1.50;;;38.40;32.20;;;;;;951378;147;26340;-79
2022/07/31 11:01:13;;;;;;;1.30;1.20;;;38.30;32.10;;;;;;948905;147;26677;-80
2022/07/31 11:03:40;;;;;;;2.40;1.27;;;38.20;32.80;;;;;;948983;149;26219;-80
2022/07/31 11:06:06;;;;;;;1.27;1.10;;;38.10;32.00;;;;;;948477;147;26240;-80
2022/07/31 11:08:45;;;;;;;1.30;1.20;;;37.90;32.30;;;;;;950083;149;26184;-81
2022/07/31 11:11:12;;;;;;;1.25;1.17;;;37.60;32.30;;;;;;948562;146;27365;-79
2022/07/31 11:13:44;;;;;;;1.42;1.22;;;37.40;32.50;;;;;;948416;148;26248;-79
2022/07/31 11:16:10;;;;;;;2.58;1.50;;;37.30;32.50;;;;;;941015;149;26318;-79
2022/07/31 11:18:37;;;;;;;1.57;1.47;;;37.10;32.40;;;;;;950266;149;27461;-80
2022/07/31 11:21:04;;;;;;;1.40;1.30;;;37.00;32.50;;;;;;948578;147;26252;-80
2022/07/31 11:23:30;;;;;;;1.40;1.30;;;36.80;33.10;;;;;;944516;150;27308;-81
2022/07/31 11:26:00;;;;;;;1.72;1.62;;;36.70;32.40;;;;;;946731;150;27366;-79
2022/07/31 11:28:26;;;;;;;1.50;1.40;;;36.60;32.60;;;;;;946514;150;27334;-79
2022/07/31 11:31:05;;;;;;;1.50;1.40;;;36.50;32.90;;;;;;947790;147;27419;-80
2022/07/31 11:33:31;;;;;;;1.87;1.27;;;36.50;33.10;;;;;;943824;150;27313;-80
2022/07/31 11:36:04;;;;;;;1.52;1.12;;;36.50;33.20;;;;;;943918;147;27859;-81
2022/07/31 11:38:30;;;;;;;3.45;1.30;;;36.50;33.20;;;;;;945022;148;26213;-80
2022/07/31 11:40:57;;;;;;;1.00;1.00;;;36.50;33.10;;;;;;946102;147;27316;-81
2022/07/31 11:43:23;;;;;;;1.32;1.22;;;36.60;33.00;;;;;;943679;150;26229;-79
2022/07/31 11:45:50;;;;;;;1.45;1.35;;;36.70;33.00;;;;;;946155;149;27694;-81
2022/07/31 11:48:17;;;;;;;1.27;1.17;;;36.80;32.70;;;;;;945852;149;26248;-79
2022/07/31 11:50:43;;;;;;;1.35;1.25;;;36.80;32.40;;;;;;944882;150;26237;-79
2022/07/31 11:53:10;;;;;;;1.17;1.07;;;36.80;32.40;;;;;;945773;150;27350;-79
2022/07/31 11:55:54;;;;;;;2.30;1.30;;;36.80;32.30;;;;;;943216;147;27922;-79
2022/07/31 11:58:21;;;;;;;1.32;1.20;;;36.70;32.20;;;;;;943456;149;27437;-80
2022/07/31 12:00:54;;;;;;;1.20;1.05;;;36.60;32.20;;;;;;943817;147;26334;-81
2022/07/31 12:03:35;;;;;;;3.83;1.20;;;36.40;32.20;;;;;;943150;150;27387;-79
2022/07/31 12:06:02;;;;;;;1.20;1.07;;;36.30;32.40;;;;;;945367;150;27358;-80
2022/07/31 12:08:29;;;;;;;1.90;1.30;;;36.20;32.50;;;;;;943319;147;27363;-80
2022/07/31 12:10:55;;;;;;;1.70;1.30;;;36.20;32.80;;;;;;943371;150;27374;-80
2022/07/31 12:13:22;;;;;;;1.30;1.20;;;36.20;32.70;;;;;;944174;147;27360;-80
2022/07/31 12:15:57;;;;;;;1.55;1.10;;;36.20;32.60;;;;;;943628;149;27398;-81
2022/07/31 12:18:24;;;;;;;3.50;1.10;;;36.30;32.50;;;;;;940285;147;27368;-80
2022/07/31 12:20:53;;;;;;;1.25;1.15;;;36.30;32.20;;;;;;946606;149;26260;-80
2022/07/31 12:23:20;;;;;;;1.67;1.40;;;36.40;32.30;;;;;;952634;146;27391;-80
2022/07/31 12:25:46;;;;;;;1.27;1.17;;;36.30;32.20;;;;;;951429;149;27406;-82
2022/07/31 12:28:13;;;;;;;1.25;1.15;;;36.40;32.30;;;;;;950511;149;27350;-79
2022/07/31 12:30:39;;;;;;;5.47;1.10;;;36.40;32.20;;;;;;952461;149;27425;-79
2022/07/31 12:33:06;;;;;;;1.47;1.10;;;36.40;32.10;;;;;;951813;146;27442;-80
2022/07/31 12:35:39;;;;;;;1.30;1.20;;;36.50;32.20;;;;;;949592;146;27326;-80
2022/07/31 12:38:06;;;;;;;1.82;1.22;;;36.40;32.00;;;;;;951786;149;27384;-80
2022/07/31 12:40:32;;;;;;;1.05;0.95;;;36.40;32.00;;;;;;952480;146;27369;-80
2022/07/31 12:42:58;;;;;;;1.27;1.17;;;36.30;31.80;;;;;;952715;149;27352;-80
2022/07/31 12:45:31;;;;;;;1.25;1.17;;;36.20;32.10;;;;;;952562;146;27384;-80
2022/07/31 12:47:58;;;;;;;1.32;1.22;;;36.10;32.20;;;;;;951534;146;27363;-79
2022/07/31 12:50:24;;;;;;;1.98;1.22;;;36.10;32.30;;;;;;950274;149;27341;-78
2022/07/31 12:52:51;;;;;;;1.67;1.32;;;36.00;32.10;;;;;;948799;149;27368;-79